Bishops Head, MD NWLON current weather conditions

sailwx.info

Wind from 141 at 8 knots gusting 10

Air temperature 2.8° C
Water temperature 0.6° C

Last reported at 2015-Feb-01 23:36 UTC.
Time now 2015-Feb-02 00:17 UTC

Location: N 38°13' W 076°02'.
View on Google Maps.

See reports from other nearby stations

  
Tides and Currents Weather Stations Pressure Air Temp Water Temp Dewpoint Dewpoint Depression Visibility Wind Speed Wind Dir Waves Ship Positions
date/time (UTC)wind fromknots sea level pressurealtimeterstation pressurevisibilityair tempwater tempwave heightnotes
2015-Feb-01 23:36 141 8 gusting 10 2.8 0.6
2015-Feb-01 23:30 133 9 gusting 12 2.2 0.6
2015-Feb-01 23:24 124 9 gusting 11 2.2 0.6
2015-Feb-01 23:18 131 10 gusting 13 2.2 0.6
2015-Feb-01 23:12 141 11 gusting 12 2.8 0.6
2015-Feb-01 23:00 143 10 gusting 12 2.8 0.6
2015-Feb-01 22:54 140 11 gusting 12 2.8 0.6
2015-Feb-01 22:48 144 11 gusting 13 2.8 0.6
2015-Feb-01 22:36 140 12 gusting 13 2.8 0.6
2015-Feb-01 22:30 136 10 gusting 11 2.8 0.6
2015-Feb-01 22:24 138 10 gusting 11 2.8 0.6
2015-Feb-01 22:18 143 10 gusting 12 2.8 0.6
2015-Feb-01 22:12 148 11 gusting 13 2.8 0.6
2015-Feb-01 22:06 139 11 gusting 13 2.8 0.6
2015-Feb-01 22:00 142 10 gusting 11 2.8 0.6
2015-Feb-01 21:54 141 9 gusting 11 2.8 0.6
2015-Feb-01 21:48 148 11 gusting 12 2.8 0.6
2015-Feb-01 21:36 153 9 gusting 9 2.2 1.1
2015-Feb-01 21:30 161 9 gusting 10 2.2 1.1
2015-Feb-01 21:24 162 8 gusting 11 2.8 1.1
2015-Feb-01 21:18 163 9 gusting 10 2.8 1.1
2015-Feb-01 21:12 170 9 gusting 10 2.8 1.1
2015-Feb-01 21:06 168 8 gusting 9 3.3 1.1
2015-Feb-01 21:00 172 8 gusting 9 2.8 1.1
2015-Feb-01 20:54 172 8 gusting 10 2.8 1.1
2015-Feb-01 20:48 173 9 gusting 11 3.3 1.1
2015-Feb-01 20:36 173 11 gusting 13 2.8 1.1
2015-Feb-01 20:30 173 10 gusting 11 2.8 1.1
2015-Feb-01 20:24 175 9 gusting 10 2.8 1.1
2015-Feb-01 20:18 166 8 gusting 9 2.2 1.1
2015-Feb-01 20:12 160 7 gusting 9 2.2 1.1
2015-Feb-01 20:06 155 7 gusting 9 2.2 1.1
2015-Feb-01 20:00 156 9 gusting 10 2.2 1.1
2015-Feb-01 19:54 152 9 gusting 9 2.2 1.1
2015-Feb-01 19:48 158 9 gusting 10 2.2 1.1
2015-Feb-01 19:36 154 9 gusting 10 2.8 1.1
2015-Feb-01 19:30 156 9 gusting 10 2.8 0.6
2015-Feb-01 19:24 155 9 gusting 11 2.8 0.6
2015-Feb-01 19:18 158 8 gusting 9 2.8 0.6
2015-Feb-01 19:12 151 7 gusting 9 2.8 0.6
2015-Feb-01 19:06 150 7 gusting 8 2.2 0.6
2015-Feb-01 19:00 166 7 gusting 10 2.8 0.6
2015-Feb-01 18:54 166 9 gusting 11 2.8 0.6
2015-Feb-01 18:48 172 9 gusting 13 2.8 0.6
2015-Feb-01 18:36 180 12 gusting 13 3.3 0.6
2015-Feb-01 18:30 178 11 gusting 13 2.8 0.6
2015-Feb-01 18:24 179 12 gusting 14 3.3 0.6
2015-Feb-01 18:18 179 12 gusting 13 3.3 0.6
2015-Feb-01 18:12 185 11 gusting 13 3.3 0.6
2015-Feb-01 18:06 190 11 gusting 13 3.3 0.6
2015-Feb-01 18:00 196 10 gusting 13 2.8 0.6
2015-Feb-01 17:54 194 11 gusting 13 2.8 0.6
2015-Feb-01 17:48 201 13 gusting 13 2.8 0.6
2015-Feb-01 17:42 204 11 gusting 13 2.8 0.6
2015-Feb-01 17:36 194 11 gusting 13 2.8 0.6
2015-Feb-01 17:30 188 11 gusting 12 2.8-0.0
2015-Feb-01 17:24 186 9 gusting 11 2.8-0.0
2015-Feb-01 17:18 177 9 gusting 11 2.8-0.0
2015-Feb-01 17:12 177 10 gusting 12 2.2-0.0
2015-Feb-01 17:06 181 10 gusting 11 2.2-0.0
2015-Feb-01 17:00 173 9 gusting 10 2.2
2015-Feb-01 16:54 172 9 gusting 10 2.2
2015-Feb-01 16:48 175 8 gusting 9 2.2
2015-Feb-01 16:36 173 7 gusting 9 1.7-0.0
2015-Feb-01 16:30 170 7 gusting 9 1.7
2015-Feb-01 16:24 169 8 gusting 10 1.7
2015-Feb-01 16:18 164 9 gusting 11 1.7-0.6
2015-Feb-01 16:12 166 9 gusting 11 1.7
2015-Feb-01 16:06 159 10 gusting 11 1.7
2015-Feb-01 16:00 165 9 gusting 13 1.7
2015-Feb-01 15:54 167 11 gusting 12 1.1
2015-Feb-01 15:48 165 10 gusting 11 1.1
2015-Feb-01 15:36 155 8 gusting 9 1.1-0.6
2015-Feb-01 15:30 157 8 gusting 10 1.1
2015-Feb-01 15:24 164 9 gusting 12 1.1
2015-Feb-01 15:18 163 10 gusting 13 1.1
2015-Feb-01 15:12 166 12 gusting 13 1.1
2015-Feb-01 15:06 165 10 gusting 12 1.1-0.6
2015-Feb-01 15:00 165 10 gusting 11 0.6
2015-Feb-01 14:54 165 10 gusting 12 0.6
2015-Feb-01 14:48 161 11 gusting 13 0.6
2015-Feb-01 14:36 159 10 gusting 12 0.6-0.6
2015-Feb-01 14:30 156 10 gusting 11 0.6
2015-Feb-01 14:24 158 10 gusting 12 0.6
2015-Feb-01 14:18 165 11 gusting 12 0.6
2015-Feb-01 14:12 158 9 gusting 11 0.6
2015-Feb-01 14:06 155 9 gusting 10 0.6-1.1
2015-Feb-01 14:00 162 8 gusting 10 -0.0
2015-Feb-01 13:54 165 8 gusting 9 -0.0
2015-Feb-01 13:48 161 8 gusting 9
2015-Feb-01 13:36 159 7 gusting 8 -0.0-1.1
2015-Feb-01 13:30 166 7 gusting 8
2015-Feb-01 13:24 158 7 gusting 7 -0.0-1.1
2015-Feb-01 13:18 156 6 gusting 7
2015-Feb-01 13:12 164 6 gusting 6
2015-Feb-01 13:06 165 6 gusting 7 -1.1
2015-Feb-01 13:00 155 6 gusting 7
2015-Feb-01 12:54 151 6 gusting 6
2015-Feb-01 12:48 150 6 gusting 6
2015-Feb-01 12:36 153 6 gusting 6 -0.0-1.1
2015-Feb-01 12:30 148 6 gusting 6
2015-Feb-01 12:24 152 6 gusting 6
2015-Feb-01 12:18 157 6 gusting 6
2015-Feb-01 12:12 151 5 gusting 6
2015-Feb-01 12:06 149 5 gusting 6 -0.6-1.1
2015-Feb-01 12:00 145 6 gusting 6
2015-Feb-01 11:54 132 5 gusting 6
2015-Feb-01 11:48 131 6 gusting 6
2015-Feb-01 11:36 143 5 gusting 5 -0.6-1.1
2015-Feb-01 11:30 161 4 gusting 5
2015-Feb-01 11:24 164 5 gusting 5
2015-Feb-01 11:18 153 4 gusting 5
2015-Feb-01 11:12 151 4 gusting 5
2015-Feb-01 11:06 151 4 gusting 4 -0.6-1.1
2015-Feb-01 11:00 150 3 gusting 4
2015-Feb-01 10:54 142 3 gusting 3
2015-Feb-01 10:48 140 3 gusting 3
2015-Feb-01 10:36 145 3 gusting 3 -0.6-0.6
2015-Feb-01 10:30 150 2 gusting 2
2015-Feb-01 10:24 132 2 gusting 2
2015-Feb-01 10:18 131 1 gusting 2
2015-Feb-01 10:12 116 1 gusting 1
2015-Feb-01 10:06 100 1 gusting 1 -1.1-0.6
2015-Feb-01 10:00 100 0 gusting 1
2015-Feb-01 09:54 100 1 gusting 1
2015-Feb-01 09:48 099 1 gusting 2
2015-Feb-01 09:36 075 2 gusting 4 -1.7-0.6
2015-Feb-01 09:30 077 3 gusting 4
2015-Feb-01 09:24 085 3 gusting 4
2015-Feb-01 09:18 092 4 gusting 4
2015-Feb-01 09:12 097 4 gusting 4
2015-Feb-01 09:06 098 4 gusting 4 -1.7-0.6
2015-Feb-01 09:00 091 4 gusting 4
2015-Feb-01 08:54 104 4 gusting 5
2015-Feb-01 08:48 099 4 gusting 5
2015-Feb-01 08:36 106 4 gusting 4 -1.1-0.6
2015-Feb-01 08:30 094 3 gusting 3
2015-Feb-01 08:24 103 3 gusting 3
2015-Feb-01 08:18 125 1 gusting 2
2015-Feb-01 08:12 118 2 gusting 3
2015-Feb-01 08:06 132 3 gusting 4
2015-Feb-01 08:00 130 3 gusting 4
2015-Feb-01 07:54 160 1 gusting 2
2015-Feb-01 07:48 148 2 gusting 2
2015-Feb-01 07:36 152 1 gusting 3 -1.1-0.6
2015-Feb-01 07:30 175 2 gusting 3
2015-Feb-01 07:24 170 2 gusting 3
2015-Feb-01 07:18 167 3 gusting 4
2015-Feb-01 07:12 152 3 gusting 5
2015-Feb-01 07:06 151 4 gusting 5 -1.1-0.6
2015-Feb-01 07:00 144 4 gusting 5
2015-Feb-01 06:54 117 3 gusting 3
2015-Feb-01 06:48 082 3 gusting 3
2015-Feb-01 06:36 068 2 gusting 2 -1.7-0.6
2015-Feb-01 06:30 061 2 gusting 3
2015-Feb-01 06:24 056 1 gusting 1
2015-Feb-01 06:18 050 1 gusting 1
2015-Feb-01 06:12 049 1 gusting 1
2015-Feb-01 06:06 042 1 gusting 1
2015-Feb-01 06:00 199 0 gusting 0
2015-Feb-01 05:54 199 0 gusting 0
2015-Feb-01 05:48 199 0 gusting 0
2015-Feb-01 05:36 199 0 gusting 0 -0.6-0.6
2015-Feb-01 05:30 199 0 gusting 2
2015-Feb-01 05:24 199 2 gusting 4
2015-Feb-01 05:18 199 4 gusting 5
2015-Feb-01 05:12 197 4 gusting 4
2015-Feb-01 05:06 186 3 gusting 3 -0.6-0.6
2015-Feb-01 05:00 076 0 gusting 1
2015-Feb-01 04:54 028 1 gusting 1
2015-Feb-01 04:48 027
2015-Feb-01 04:36 027 0 gusting 1 -0.6-0.6
2015-Feb-01 04:30 027
2015-Feb-01 04:24 027 0 gusting 0 -0.6-0.6
2015-Feb-01 04:18 027
2015-Feb-01 04:12 027
2015-Feb-01 04:06 027 -0.6-0.6
2015-Feb-01 04:00 027
2015-Feb-01 03:54 027 -0.6-0.6
2015-Feb-01 03:48 027
2015-Feb-01 03:36 027 0 gusting 0 -0.6-0.6
2015-Feb-01 03:30 027 0 gusting 1
2015-Feb-01 03:24 027 1 gusting 1
2015-Feb-01 03:18 027
2015-Feb-01 03:12 026 0 gusting 0 -0.6-0.6
2015-Feb-01 03:06 026 -0.6-0.6
2015-Feb-01 03:00 026
2015-Feb-01 02:54 026 -1.1-0.6
2015-Feb-01 02:48 026
2015-Feb-01 02:36 026 -1.1-0.6
2015-Feb-01 02:30 026
2015-Feb-01 02:24 026 1 gusting 1 -1.1-1.1
2015-Feb-01 02:18 023 0 gusting 1
2015-Feb-01 02:12 021 0 gusting 1
2015-Feb-01 02:06 022 0 gusting 0 -1.1-1.1
2015-Feb-01 02:00 022
2015-Feb-01 01:54 022
2015-Feb-01 01:48 022
2015-Feb-01 01:36 005 1 gusting 1 -1.7-1.1
2015-Feb-01 01:30 002 1 gusting 1
2015-Feb-01 01:24 024 0 gusting 1
2015-Feb-01 01:18 017 0 gusting 2
2015-Feb-01 01:12 011 2 gusting 3
2015-Feb-01 01:06 001 1 gusting 1 -1.7-1.1
2015-Feb-01 01:00 324 0 gusting 1
2015-Feb-01 00:54 268 0 gusting 1
2015-Feb-01 00:48 286 1 gusting 2
2015-Feb-01 00:42 317 2 gusting 2
2015-Feb-01 00:36 253 1 gusting 2
2015-Feb-01 00:30 357 1 gusting 5
2015-Feb-01 00:24 008 4 gusting 5
2015-Feb-01 00:18 002 3 gusting 5
2015-Feb-01 00:12 355 3 gusting 4
2015-Feb-01 00:06 341 3 gusting 5 -2.2-0.6
2015-Jan-31 23:48 334 5 gusting 5
2015-Jan-31 23:36 316 3 gusting 4 -2.2-0.6
2015-Jan-31 23:18 326 5 gusting 6
2015-Jan-31 23:12 337 5 gusting 5
2015-Jan-31 23:06 346 5 gusting 6 -2.2-0.6
2015-Jan-31 23:00 337 5 gusting 6
2015-Jan-31 22:54 335 5 gusting 6
2015-Jan-31 22:48 332 5 gusting 6
2015-Jan-31 22:36 314 6 gusting 7 -1.7-0.6
2015-Jan-31 22:30 316 6 gusting 8
2015-Jan-31 22:24 316 7 gusting 10
2015-Jan-31 22:18 312 8 gusting 10
2015-Jan-31 22:12 316 8 gusting 11
2015-Jan-31 22:06 316 9 gusting 11 -1.1-0.0
2015-Jan-31 22:00 318 9 gusting 13
2015-Jan-31 21:54 313 10 gusting 13
2015-Jan-31 21:48 317 11 gusting 14
2015-Jan-31 21:36 314 13 gusting 16 -0.6-0.0
2015-Jan-31 21:30 313 13 gusting 15
2015-Jan-31 21:24 307 13 gusting 18
2015-Jan-31 21:18 306 13 gusting 16
2015-Jan-31 21:12 306 13 gusting 16
2015-Jan-31 21:06 306 11 gusting 16 -0.6-0.0
2015-Jan-31 21:00 304 14 gusting 17
2015-Jan-31 20:54 308 13 gusting 18
2015-Jan-31 20:48 308 15 gusting 18
2015-Jan-31 20:36 305 15 gusting 18 -0.6-0.0
2015-Jan-31 20:30 307 13 gusting 18
2015-Jan-31 20:24 313 15 gusting 19 -1.1-0.0
2015-Jan-31 20:18 305 15 gusting 19 -0.0
2015-Jan-31 20:12 304 14 gusting 19 -0.0
2015-Jan-31 20:06 305 16 gusting 19 -0.0
2015-Jan-31 20:00 310 16 gusting 19 -0.0
2015-Jan-31 19:54 307 16 gusting 19 -0.0
2015-Jan-31 19:48 310 16 gusting 18 -0.0
2015-Jan-31 19:36 298 14 gusting 19 -1.7-0.0
2015-Jan-31 19:30 300 16 gusting 17 -0.0
2015-Jan-31 19:24 305 13 gusting 18 -0.0
2015-Jan-31 19:18 301 14 gusting 18 -0.0
2015-Jan-31 19:12 304 13 gusting 16 -0.0
2015-Jan-31 19:06 309 13 gusting 18 -1.7-0.0
2015-Jan-31 19:00 309 15 gusting 16 -0.0
2015-Jan-31 18:54 316 13 gusting 18 -0.0
2015-Jan-31 18:48 309 13 gusting 18
2015-Jan-31 18:36 305 13 gusting 18 -2.2-0.0
2015-Jan-31 18:30 315 13 gusting 18
2015-Jan-31 18:24 319 14 gusting 19
2015-Jan-31 18:18 313 12 gusting 18
2015-Jan-31 18:12 318 14 gusting 19
2015-Jan-31 18:06 305 15 gusting 18 -2.2-0.6
2015-Jan-31 18:00 316 13 gusting 19
2015-Jan-31 17:54 316 17 gusting 24
2015-Jan-31 17:48 314 15 gusting 23
2015-Jan-31 17:36 305 19 gusting 23 -2.8-0.6
2015-Jan-31 17:30 306 19 gusting 24
2015-Jan-31 17:24 307 18 gusting 24
2015-Jan-31 17:18 307 18 gusting 22
2015-Jan-31 17:12 305 18 gusting 21
2015-Jan-31 17:06 318 18 gusting 23 -2.8-0.6
2015-Jan-31 17:00 312 19 gusting 24
2015-Jan-31 16:54 309 18 gusting 21
2015-Jan-31 16:48 314 17 gusting 20
2015-Jan-31 16:36 307 19 gusting 21 -3.3-0.6
2015-Jan-31 16:18 300 19 gusting 22
2015-Jan-31 16:12 315 15 gusting 20
2015-Jan-31 16:06 308 18 gusting 21 -3.9-0.6
2015-Jan-31 16:00 314 19 gusting 24
2015-Jan-31 15:54 308 17 gusting 26
2015-Jan-31 15:48 315 18 gusting 21
2015-Jan-31 15:36 314 19 gusting 21 -3.9-1.1
2015-Jan-31 15:30 323 16 gusting 23
2015-Jan-31 15:24 326 15 gusting 22
2015-Jan-31 15:18 326 15 gusting 22
2015-Jan-31 15:12 324 18 gusting 23
2015-Jan-31 15:06 329 17 gusting 23 -4.4-1.1
2015-Jan-31 15:00 323 18 gusting 22
2015-Jan-31 14:54 328 17 gusting 21
2015-Jan-31 14:48 320 16 gusting 23
2015-Jan-31 14:36 318 19 gusting 22 -5.0-1.1
2015-Jan-31 14:30 318 15 gusting 22
2015-Jan-31 14:24 310 19 gusting 24
2015-Jan-31 14:18 310 19 gusting 23
2015-Jan-31 14:12 315 18 gusting 22
2015-Jan-31 14:06 314 19 gusting 22 -5.0-1.1
2015-Jan-31 14:00 318 17 gusting 21
2015-Jan-31 13:54 316 16 gusting 23
2015-Jan-31 13:48 315 16 gusting 24 -5.6-1.1
2015-Jan-31 13:42 316 17 gusting 23
2015-Jan-31 13:36 326 19 gusting 26
2015-Jan-31 13:30 317 19 gusting 24
2015-Jan-31 13:24 320 19 gusting 25
2015-Jan-31 13:18 313 20 gusting 25
2015-Jan-31 13:12 316 18 gusting 23
2015-Jan-31 13:06 311 22 gusting 26 -6.1-1.1
2015-Jan-31 13:00 319 19 gusting 26
2015-Jan-31 12:54 320 19 gusting 25
2015-Jan-31 12:48 318 18 gusting 26
2015-Jan-31 12:36 322 15 gusting 21 -6.1-1.1
2015-Jan-31 12:30 316 18 gusting 25
2015-Jan-31 12:24 320 19 gusting 23
2015-Jan-31 12:18 324 16 gusting 22
2015-Jan-31 12:12 323 16 gusting 18
2015-Jan-31 12:06 322 15 gusting 18 -6.1-1.1
2015-Jan-31 12:00 326 14 gusting 20
2015-Jan-31 11:54 320 14 gusting 22
2015-Jan-31 11:48 321 16 gusting 22
2015-Jan-31 11:36 324 12 gusting 20 -6.7-1.1
2015-Jan-31 11:30 321 16 gusting 22
2015-Jan-31 11:24 325 14 gusting 21
2015-Jan-31 11:18 319 17 gusting 21
2015-Jan-31 11:12 325 13 gusting 19
2015-Jan-31 11:06 324 13 gusting 19 -6.7-1.1
2015-Jan-31 11:00 321 17 gusting 20
2015-Jan-31 10:54 325 16 gusting 20
2015-Jan-31 10:48 327 15 gusting 22
2015-Jan-31 10:36 327 15 gusting 25 -6.7-1.1
2015-Jan-31 10:30 322 18 gusting 23
2015-Jan-31 10:24 322 15 gusting 26
2015-Jan-31 10:18 323 16 gusting 25
2015-Jan-31 10:12 324 16 gusting 25
2015-Jan-31 10:06 324 19 gusting 25 -6.1-1.1
2015-Jan-31 10:00 316 21 gusting 26
2015-Jan-31 09:54 322 20 gusting 26
2015-Jan-31 09:48 322 19 gusting 24
2015-Jan-31 09:36 325 17 gusting 26 -6.1-1.1
2015-Jan-31 09:30 322 21 gusting 26
2015-Jan-31 09:24 322 19 gusting 26
2015-Jan-31 09:18 324 19 gusting 29 -6.1-1.1
2015-Jan-31 09:12 322 20 gusting 27
2015-Jan-31 09:06 321 19 gusting 26
2015-Jan-31 09:00 319 23 gusting 27
2015-Jan-31 08:54 321 19 gusting 24
2015-Jan-31 08:48 319 19 gusting 28
2015-Jan-31 08:36 324 17 gusting 22 -6.1-1.1
2015-Jan-31 08:30 325 18 gusting 25
2015-Jan-31 08:24 321 19 gusting 27
2015-Jan-31 08:18 323 19 gusting 26
2015-Jan-31 08:12 326 20 gusting 28
2015-Jan-31 08:06 321 18 gusting 28 -5.6-1.1
2015-Jan-31 08:00 321 18 gusting 25
2015-Jan-31 07:54 324 17 gusting 31
2015-Jan-31 07:48 321 22 gusting 28
2015-Jan-31 07:36 320 18 gusting 26 -5.6-1.1
2015-Jan-31 07:30 319 20 gusting 24
2015-Jan-31 07:24 324 21 gusting 27
2015-Jan-31 07:18 316 20 gusting 25
2015-Jan-31 07:12 324 15 gusting 22
2015-Jan-31 07:06 323 18 gusting 27 -5.0-1.1
2015-Jan-31 07:00 323 21 gusting 27
2015-Jan-31 06:54 325 16 gusting 26
2015-Jan-31 06:48 325 22 gusting 28
2015-Jan-31 06:42 323 22 gusting 26
2015-Jan-31 06:36 317 20 gusting 31
2015-Jan-31 06:30 320 16 gusting 26
2015-Jan-31 06:24 316 20 gusting 26
2015-Jan-31 06:18 321 22 gusting 31
2015-Jan-31 06:12 320 19 gusting 26
2015-Jan-31 06:06 324 18 gusting 26 -5.0-1.1
2015-Jan-31 06:00 323 20 gusting 26
2015-Jan-31 05:54 323 20 gusting 28
2015-Jan-31 05:48 320 18 gusting 26
2015-Jan-31 05:36 326 20 gusting 30 -4.4-1.1
2015-Jan-31 05:30 313 24 gusting 27
2015-Jan-31 05:24 324 21 gusting 31
2015-Jan-31 05:18 323 21 gusting 30
2015-Jan-31 05:12 323 19 gusting 29
2015-Jan-31 05:06 320 22 gusting 26 -4.4-1.1
2015-Jan-31 05:00 320 19 gusting 27
2015-Jan-31 04:54 313 23 gusting 27
2015-Jan-31 04:48 322 19 gusting 27
2015-Jan-31 04:42 317 23 gusting 27
2015-Jan-31 04:36 323 17 gusting 26
2015-Jan-31 04:30 323 22 gusting 28
2015-Jan-31 04:24 321 18 gusting 27
2015-Jan-31 04:18 324 21 gusting 26
2015-Jan-31 04:12 322 20 gusting 28
2015-Jan-31 04:06 317 23 gusting 31 -3.9-0.6
2015-Jan-31 04:00 317 26 gusting 33
2015-Jan-31 03:54 323 26 gusting 30
2015-Jan-31 03:48 322 22 gusting 29
2015-Jan-31 03:36 314 23 gusting 27 -3.3-0.0
2015-Jan-31 03:30 321 22 gusting 29
2015-Jan-31 03:24 315 23 gusting 34
2015-Jan-31 03:18 319 26 gusting 30
2015-Jan-31 03:12 322 23 gusting 28
2015-Jan-31 03:06 324 25 gusting 32 -3.3-0.0
2015-Jan-31 03:00 325 19 gusting 32 -0.0
2015-Jan-31 02:54 317 27 gusting 33 0.6
2015-Jan-31 02:48 316 26 gusting 33 0.6
2015-Jan-31 02:36 321 26 gusting 33 -2.8 0.6
2015-Jan-31 02:30 321 23 gusting 31 0.6
2015-Jan-31 02:24 319 22 gusting 34 0.6
2015-Jan-31 02:18 320 25 gusting 33 0.6
2015-Jan-31 02:12 324 24 gusting 36 0.6
2015-Jan-31 02:06 327 24 gusting 32 -2.2 0.6
2015-Jan-31 02:00 324 27 gusting 33 0.6
2015-Jan-31 01:54 320 25 gusting 34 1.1
2015-Jan-31 01:48 316 24 gusting 33 1.1
2015-Jan-31 01:36 321 19 gusting 25 -2.2 1.1
2015-Jan-31 01:30 327 18 gusting 26 1.1
2015-Jan-31 01:24 325 18 gusting 29 1.1
2015-Jan-31 01:18 325 22 gusting 27 1.1
2015-Jan-31 01:12 326 22 gusting 29 1.1
2015-Jan-31 01:06 321 22 gusting 31 -1.1 1.1
2015-Jan-31 01:00 318 22 gusting 32 1.1
2015-Jan-31 00:54 312 25 gusting 32 1.1
2015-Jan-31 00:48 312 21 gusting 31 1.1
2015-Jan-31 00:36 321 22 gusting 31 -0.6 1.1
2015-Jan-31 00:30 318 24 gusting 30 1.1
2015-Jan-31 00:24 317 26 gusting 31 1.1
2015-Jan-31 00:18 316 20 gusting 30 1.1
2015-Jan-31 00:12 314 26 gusting 33 1.1
2015-Jan-31 00:06 311 26 gusting 35 1.7